createdAt,value
2023-04-01T00:01:30.314Z,100797.94
2023-04-01T00:03:58.496Z,100786.22
2023-04-01T00:06:28.531Z,100787.75
2023-04-01T00:08:59.511Z,100789.22
2023-04-01T00:11:28.247Z,100791.59
2023-04-01T00:13:58.448Z,100795.00
2023-04-01T00:16:28.275Z,100805.75
2023-04-01T00:18:56.254Z,100810.31
2023-04-01T00:21:24.233Z,100816.63
2023-04-01T00:23:54.421Z,100809.50
2023-04-01T00:26:26.234Z,100817.09
2023-04-01T00:28:53.970Z,100823.03
2023-04-01T00:31:24.056Z,100813.72
2023-04-01T00:33:54.319Z,100821.28
2023-04-01T00:36:24.172Z,100824.66
2023-04-01T00:38:54.503Z,100818.59
2023-04-01T00:41:27.191Z,100817.13
2023-04-01T00:43:57.248Z,100784.22
2023-04-01T00:46:27.301Z,100820.25
2023-04-01T00:48:57.410Z,100826.97
2023-04-01T00:51:33.251Z,100820.41
2023-04-01T00:54:04.645Z,100819.28
2023-04-01T00:56:42.573Z,100826.69
2023-04-01T00:59:13.914Z,100821.97
2023-04-01T01:01:46.143Z,100824.34
2023-04-01T01:04:28.449Z,100828.75
2023-04-01T01:07:11.555Z,100781.16
2023-04-01T01:09:47.713Z,100826.16
2023-04-01T01:12:25.236Z,100826.13
2023-04-01T01:15:03.770Z,100828.47
2023-04-01T01:17:41.905Z,100785.94
2023-04-01T01:20:42.436Z,100826.84
2023-04-01T01:23:51.985Z,100827.38
2023-04-01T01:26:50.604Z,100826.25
2023-04-01T01:29:53.535Z,100826.75
2023-04-01T01:32:36.688Z,100805.13
2023-04-01T01:35:29.633Z,100830.78
2023-04-01T01:38:00.507Z,100836.72
2023-04-01T01:40:35.549Z,100801.28
2023-04-01T01:43:12.398Z,100834.91
2023-04-01T01:45:50.046Z,100833.00
2023-04-01T01:48:19.404Z,100830.72
2023-04-01T01:50:54.040Z,100830.13
2023-04-01T01:53:21.788Z,100836.13
2023-04-01T01:55:55.002Z,100836.47
2023-04-01T01:58:28.812Z,100840.81
2023-04-01T02:01:02.052Z,100839.72
2023-04-01T02:03:35.692Z,100841.41
2023-04-01T02:06:10.297Z,100844.09
2023-04-01T02:08:42.800Z,100844.38
2023-04-01T02:11:15.493Z,100844.06
2023-04-01T02:13:51.730Z,100843.72
2023-04-01T02:16:25.887Z,100813.56
2023-04-01T02:18:57.136Z,100857.00
2023-04-01T02:21:32.798Z,100846.59
2023-04-01T02:24:06.012Z,100838.69
2023-04-01T02:26:36.635Z,100852.00
2023-04-01T02:29:06.657Z,100846.50
2023-04-01T02:31:37.107Z,100808.78
2023-04-01T02:34:07.399Z,100844.53
2023-04-01T02:36:40.329Z,100851.59
2023-04-01T02:39:10.474Z,100815.47
2023-04-01T02:41:43.399Z,100849.81
2023-04-01T02:44:11.989Z,100852.59
2023-04-01T02:46:39.800Z,100846.09
2023-04-01T02:49:11.778Z,100850.34
2023-04-01T02:51:44.909Z,100848.75
2023-04-01T02:54:15.321Z,100854.31
2023-04-01T02:56:46.597Z,100852.31
2023-04-01T02:59:14.362Z,100843.28
2023-04-01T03:01:43.935Z,100852.16
2023-04-01T03:04:13.877Z,100847.03
2023-04-01T03:06:42.961Z,100847.44
2023-04-01T03:09:12.747Z,100839.41
2023-04-01T03:11:42.742Z,100855.06
2023-04-01T03:14:10.507Z,100856.31
2023-04-01T03:16:40.197Z,100866.16
2023-04-01T03:19:10.356Z,100866.78
2023-04-01T03:21:38.139Z,100867.19
2023-04-01T03:24:10.817Z,100869.59
2023-04-01T03:26:41.044Z,100873.13
2023-04-01T03:29:08.567Z,100877.47
2023-04-01T03:31:38.380Z,100882.72
2023-04-01T03:34:08.317Z,100882.50
2023-04-01T03:36:36.207Z,100879.75
2023-04-01T03:39:06.610Z,100882.97
2023-04-01T03:41:38.050Z,100885.63
2023-04-01T03:44:05.847Z,100890.38
2023-04-01T03:46:35.469Z,100884.91
2023-04-01T03:49:12.349Z,100887.66
2023-04-01T03:51:42.682Z,100894.22
2023-04-01T03:54:13.142Z,100897.75
2023-04-01T03:56:42.257Z,100891.66
2023-04-01T03:59:12.009Z,100900.31
2023-04-01T04:01:41.889Z,100903.19
2023-04-01T04:04:09.658Z,100847.94
2023-04-01T04:06:39.658Z,100888.56
2023-04-01T04:09:11.408Z,100909.19
2023-04-01T04:11:39.137Z,100903.84
2023-04-01T04:14:08.251Z,100914.31
2023-04-01T04:16:40.427Z,100913.63
2023-04-01T04:19:08.297Z,100905.66
2023-04-01T04:21:44.236Z,100881.31
2023-04-01T04:24:16.994Z,100923.41
2023-04-01T04:26:44.676Z,100923.31
2023-04-01T04:29:15.614Z,100920.47
2023-04-01T04:31:45.770Z,100914.88
2023-04-01T04:34:13.416Z,100921.44
2023-04-01T04:36:45.507Z,100881.31
2023-04-01T04:39:17.289Z,100925.59
2023-04-01T04:41:45.353Z,100941.06
2023-04-01T04:44:16.461Z,100920.19
2023-04-01T04:46:46.447Z,100938.63
2023-04-01T04:49:14.784Z,100913.97
2023-04-01T04:51:44.671Z,100952.50
2023-04-01T04:54:16.755Z,100948.56
2023-04-01T04:56:44.451Z,100952.19
2023-04-01T04:59:15.842Z,100958.16
2023-04-01T05:01:46.861Z,100955.34
2023-04-01T05:04:14.743Z,100964.44
2023-04-01T05:06:44.760Z,100961.19
2023-04-01T05:09:19.123Z,100958.41
2023-04-01T05:11:47.041Z,100966.72
2023-04-01T05:14:18.095Z,100964.75
2023-04-01T05:16:47.233Z,100979.56
2023-04-01T05:19:16.837Z,100976.06
2023-04-01T05:21:46.804Z,100982.19
2023-04-01T05:24:14.576Z,100982.75
2023-04-01T05:26:44.150Z,100993.13
2023-04-01T05:29:14.169Z,100958.69
2023-04-01T05:31:41.909Z,100985.19
2023-04-01T05:34:13.298Z,100994.03
2023-04-01T05:36:45.496Z,101003.63
2023-04-01T05:39:13.222Z,100998.69
2023-04-01T05:41:43.242Z,100980.91
2023-04-01T05:44:14.109Z,101004.91
2023-04-01T05:46:41.904Z,100971.44
2023-04-01T05:49:15.575Z,100998.75
2023-04-01T05:51:45.571Z,101007.16
2023-04-01T05:54:13.308Z,101010.06
2023-04-01T05:56:42.967Z,101013.63
2023-04-01T05:59:14.191Z,101001.00
2023-04-01T06:01:42.200Z,101008.91
2023-04-01T06:04:18.568Z,101020.72
2023-04-01T06:06:46.909Z,101019.06
2023-04-01T06:09:17.775Z,101004.75
2023-04-01T06:12:02.859Z,101014.31
2023-04-01T06:14:42.480Z,101021.81
2023-04-01T06:17:28.519Z,101011.78
2023-04-01T06:20:06.106Z,101018.88
2023-04-01T06:22:55.025Z,101012.09
2023-04-01T06:25:38.903Z,101021.66
2023-04-01T06:28:34.808Z,101020.84
2023-04-01T06:31:08.706Z,101027.69
2023-04-01T06:34:01.843Z,101036.38
2023-04-01T06:36:45.156Z,101041.59
2023-04-01T06:39:32.782Z,101031.44
2023-04-01T06:42:17.159Z,101030.81
2023-04-01T06:44:57.408Z,101045.31
2023-04-01T06:47:37.143Z,101052.03
2023-04-01T06:50:20.250Z,101050.50
2023-04-01T06:52:58.851Z,101047.06
2023-04-01T06:55:34.365Z,101048.97
2023-04-01T06:58:05.718Z,101052.56
2023-04-01T07:00:37.194Z,101059.47
2023-04-01T07:03:17.407Z,101062.00
2023-04-01T07:05:46.290Z,101065.44
2023-04-01T07:08:19.983Z,101073.16
2023-04-01T07:10:52.732Z,101069.03
2023-04-01T07:13:26.407Z,101070.94
2023-04-01T07:16:02.669Z,101077.75
2023-04-01T07:18:37.906Z,101039.50
2023-04-01T07:21:11.018Z,101049.81
2023-04-01T07:23:44.473Z,101040.47
2023-04-01T07:26:23.599Z,101063.50
2023-04-01T07:28:56.041Z,101060.94
2023-04-01T07:32:04.514Z,101087.31
2023-04-01T07:34:39.991Z,101091.59
2023-04-01T07:37:13.009Z,101098.41
2023-04-01T07:39:52.813Z,101106.03
2023-04-01T07:42:33.675Z,101058.50
2023-04-01T07:45:09.684Z,101096.69
2023-04-01T07:47:50.956Z,101102.63
2023-04-01T07:50:27.909Z,101055.13
2023-04-01T07:53:08.093Z,101103.56
2023-04-01T07:55:46.147Z,101073.81
2023-04-01T07:58:27.123Z,101103.50
2023-04-01T08:01:03.635Z,101114.56
2023-04-01T08:03:43.039Z,101113.59
2023-04-01T08:06:20.705Z,101109.41
2023-04-01T08:09:03.746Z,101108.44
2023-04-01T08:11:48.125Z,101083.88
2023-04-01T08:14:26.384Z,101110.03
2023-04-01T08:17:04.308Z,101106.53
2023-04-01T08:19:52.745Z,101114.84
2023-04-01T08:22:27.367Z,101071.59
2023-04-01T08:25:05.153Z,101113.13
2023-04-01T08:27:39.583Z,101111.44
2023-04-01T08:30:23.306Z,101116.50
2023-04-01T08:32:57.741Z,101102.94
2023-04-01T08:35:34.952Z,101121.66
2023-04-01T08:38:14.125Z,101124.94
2023-04-01T08:41:02.151Z,101121.41
2023-04-01T08:44:01.445Z,101129.56
2023-04-01T08:46:56.950Z,101128.75
2023-04-01T08:49:39.112Z,101126.63
2023-04-01T08:52:31.647Z,101125.00
2023-04-01T08:55:20.992Z,101133.69
2023-04-01T08:58:10.036Z,101130.03
2023-04-01T09:00:45.690Z,101135.88
2023-04-01T09:03:40.829Z,101140.09
2023-04-01T09:06:35.377Z,101144.47
2023-04-01T09:09:33.294Z,101137.44
2023-04-01T09:12:18.276Z,101131.25
2023-04-01T09:15:14.252Z,101098.34
2023-04-01T09:17:58.979Z,101147.19
2023-04-01T09:20:48.187Z,101152.94
2023-04-01T09:23:50.538Z,101152.44
2023-04-01T09:26:48.399Z,101161.34
2023-04-01T09:29:32.061Z,101152.38
2023-04-01T09:32:26.087Z,101155.09
2023-04-01T09:35:22.264Z,101161.31
2023-04-01T09:37:56.666Z,101154.09
2023-04-01T09:40:36.187Z,101161.63
2023-04-01T09:43:23.029Z,101161.16
2023-04-01T09:46:03.134Z,101118.00
2023-04-01T09:48:45.640Z,101166.81
2023-04-01T09:51:28.223Z,101162.78
2023-04-01T09:54:09.413Z,101166.28
2023-04-01T09:57:09.933Z,101167.88
2023-04-01T09:59:50.359Z,101160.97
2023-04-01T10:02:53.101Z,101171.59
2023-04-01T10:06:04.317Z,101179.59
2023-04-01T10:09:15.291Z,101173.28
2023-04-01T10:12:21.881Z,101172.16
2023-04-01T10:15:37.456Z,101172.78
2023-04-01T10:18:39.601Z,101178.22
2023-04-01T10:21:41.203Z,101177.81
2023-04-01T10:24:34.596Z,101166.81
2023-04-01T10:27:27.764Z,101179.16
2023-04-01T10:30:18.194Z,101176.13
2023-04-01T10:33:28.007Z,101179.84
2023-04-01T10:36:37.542Z,101195.00
2023-04-01T10:42:53.473Z,101188.31
2023-04-01T10:45:51.652Z,101188.38
2023-04-01T10:48:42.278Z,101174.66
2023-04-01T10:51:51.427Z,101197.94
2023-04-01T10:54:48.266Z,101192.09
2023-04-01T10:57:42.545Z,101192.91
2023-04-01T11:00:45.242Z,101201.72
2023-04-01T11:03:48.970Z,101196.59
2023-04-01T11:06:55.877Z,101215.25
2023-04-01T11:09:59.283Z,101200.84
2023-04-01T11:12:56.068Z,101197.00
2023-04-01T11:15:48.867Z,101207.78
2023-04-01T11:18:55.882Z,101194.97
2023-04-01T11:21:59.906Z,101209.81
2023-04-01T11:25:01.948Z,101207.97
2023-04-01T11:27:54.199Z,101208.69
2023-04-01T11:30:33.113Z,101191.81
2023-04-01T11:33:05.849Z,101151.13
2023-04-01T11:35:54.732Z,101217.13
2023-04-01T11:38:37.853Z,101225.63
2023-04-01T11:41:24.425Z,101221.78
2023-04-01T11:44:12.510Z,101237.72
2023-04-01T11:46:46.961Z,101228.34
2023-04-01T11:49:31.144Z,101225.03
2023-04-01T11:52:27.402Z,101183.59
2023-04-01T11:55:21.784Z,101228.03
2023-04-01T11:58:07.758Z,101244.16
2023-04-01T12:01:06.836Z,101239.84
2023-04-01T12:04:02.264Z,101195.22
2023-04-01T12:06:40.699Z,101252.31
2023-04-01T12:09:21.112Z,101252.41
2023-04-01T12:12:02.831Z,101224.03
2023-04-01T12:14:46.113Z,101247.09
2023-04-01T12:17:31.175Z,101246.75
2023-04-01T12:20:18.428Z,101261.91
2023-04-01T12:22:57.519Z,101256.94
2023-04-01T12:25:43.192Z,101266.53
2023-04-01T12:28:24.636Z,101269.06
2023-04-01T12:31:02.243Z,101275.41
2023-04-01T12:33:45.888Z,101264.31
2023-04-01T12:36:29.165Z,101273.59
2023-04-01T12:39:21.309Z,101270.28
2023-04-01T12:41:59.558Z,101280.56
2023-04-01T12:44:54.537Z,101278.25
2023-04-01T12:47:49.199Z,101285.63
2023-04-01T12:50:47.156Z,101286.44
2023-04-01T12:53:35.146Z,101265.63
2023-04-01T12:56:05.970Z,101298.34
2023-04-01T12:59:02.891Z,101299.22
2023-04-01T13:02:09.499Z,101315.22
2023-04-01T13:04:51.755Z,101314.13
2023-04-01T13:07:33.776Z,101318.50
2023-04-01T13:10:16.254Z,101319.13
2023-04-01T13:13:01.530Z,101321.00
2023-04-01T13:15:41.257Z,101318.41
2023-04-01T13:18:20.131Z,101328.13
2023-04-01T13:21:04.199Z,101328.78
2023-04-01T13:23:46.049Z,101331.88
2023-04-01T13:26:26.914Z,101337.50
2023-04-01T13:29:02.996Z,101332.19
2023-04-01T13:31:51.457Z,101354.31
2023-04-01T13:34:33.058Z,101355.31
2023-04-01T13:37:24.251Z,101361.22
2023-04-01T13:40:05.587Z,101360.41
2023-04-01T13:42:39.340Z,101370.88
2023-04-01T13:45:19.725Z,101357.63
2023-04-01T13:48:16.028Z,101379.53
2023-04-01T13:51:09.392Z,101368.31
2023-04-01T13:53:51.859Z,101368.97
2023-04-01T13:56:35.580Z,101369.44
2023-04-01T13:59:25.662Z,101372.63
2023-04-01T14:02:07.894Z,101378.06
2023-04-01T14:04:58.537Z,101374.44
2023-04-01T14:07:49.772Z,101381.63
2023-04-01T14:10:27.697Z,101377.31
2023-04-01T14:13:04.135Z,101346.28
2023-04-01T14:15:45.705Z,101386.09
2023-04-01T14:18:35.434Z,101392.22
2023-04-01T14:21:31.332Z,101386.50
2023-04-01T14:24:20.260Z,101396.00
2023-04-01T14:27:16.314Z,101363.31
2023-04-01T14:30:00.566Z,101394.28
2023-04-01T14:32:41.194Z,101413.09
2023-04-01T14:35:36.179Z,101399.78
2023-04-01T14:38:19.528Z,101408.28
2023-04-01T14:41:11.394Z,101412.72
2023-04-01T14:44:15.616Z,101411.66
2023-04-01T14:47:14.273Z,101417.59
2023-04-01T14:49:47.353Z,101428.69
2023-04-01T14:52:23.852Z,101426.09
2023-04-01T14:54:55.724Z,101374.50
2023-04-01T14:57:27.764Z,101436.81
2023-04-01T15:00:03.635Z,101403.06
2023-04-01T15:02:48.613Z,101442.59
2023-04-01T15:05:30.253Z,101442.09
2023-04-01T15:08:19.357Z,101447.50
2023-04-01T15:11:25.796Z,101456.88
2023-04-01T15:14:19.360Z,101461.69
2023-04-01T15:17:06.212Z,101410.13
2023-04-01T15:19:46.844Z,101476.53
2023-04-01T15:22:42.485Z,101469.63
2023-04-01T15:25:32.674Z,101474.53
2023-04-01T15:28:13.497Z,101481.56
2023-04-01T15:30:51.174Z,101481.44
2023-04-01T15:33:27.953Z,101490.31
2023-04-01T15:36:06.837Z,101493.09
2023-04-01T15:38:42.845Z,101482.09
2023-04-01T15:41:17.938Z,101497.44
2023-04-01T15:43:49.725Z,101492.56
2023-04-01T15:46:29.385Z,101494.44
2023-04-01T15:49:13.561Z,101490.03
2023-04-01T15:51:57.425Z,101502.97
2023-04-01T15:54:42.784Z,101503.00
2023-04-01T15:57:29.656Z,101504.66
2023-04-01T16:00:16.584Z,101507.16
2023-04-01T16:02:52.041Z,101510.56
2023-04-01T16:05:38.399Z,101509.84
2023-04-01T16:08:25.309Z,101509.53
2023-04-01T16:11:13.801Z,101515.69
2023-04-01T16:13:54.408Z,101515.97
2023-04-01T16:16:31.538Z,101522.25
2023-04-01T16:19:27.478Z,101529.16
2023-04-01T16:22:02.755Z,101536.97
2023-04-01T16:24:37.402Z,101525.00
2023-04-01T16:27:12.293Z,101532.72
2023-04-01T16:29:47.444Z,101533.59
2023-04-01T16:32:31.559Z,101539.53
2023-04-01T16:35:25.770Z,101541.31
2023-04-01T16:38:09.801Z,101552.38
2023-04-01T16:41:00.369Z,101551.56
2023-04-01T16:43:37.711Z,101557.53
2023-04-01T16:46:29.527Z,101566.94
2023-04-01T16:49:06.340Z,101577.97
2023-04-01T16:51:44.093Z,101575.44
2023-04-01T16:54:20.475Z,101565.16
2023-04-01T16:56:57.139Z,101577.97
2023-04-01T16:59:29.570Z,101588.13
2023-04-01T17:02:06.394Z,101594.09
2023-04-01T17:04:42.027Z,101600.91
2023-04-01T17:07:24.005Z,101601.69
2023-04-01T17:10:06.755Z,101602.50
2023-04-01T17:12:44.859Z,101599.94
2023-04-01T17:15:24.779Z,101604.97
2023-04-01T17:18:03.576Z,101609.19
2023-04-01T17:20:54.824Z,101584.41
2023-04-01T17:23:36.284Z,101622.72
2023-04-01T17:26:24.887Z,101630.31
2023-04-01T17:28:59.425Z,101631.03
2023-04-01T17:31:50.127Z,101622.44
2023-04-01T17:34:37.688Z,101633.53
2023-04-01T17:37:23.202Z,101641.09
2023-04-01T17:40:01.203Z,101652.03
2023-04-01T17:42:46.984Z,101653.66
2023-04-01T17:45:26.213Z,101656.13
2023-04-01T17:48:06.209Z,101640.69
2023-04-01T17:50:50.404Z,101659.47
2023-04-01T17:53:30.512Z,101594.34
2023-04-01T17:56:12.264Z,101649.84
2023-04-01T17:58:47.788Z,101674.50
2023-04-01T18:01:32.229Z,101679.50
2023-04-01T18:04:21.827Z,101664.94
2023-04-01T18:07:05.594Z,101675.81
2023-04-01T18:09:40.612Z,101686.19
2023-04-01T18:12:21.584Z,101628.84
2023-04-01T18:15:08.571Z,101698.81
2023-04-01T18:17:50.213Z,101693.56
2023-04-01T18:20:33.056Z,101702.00
2023-04-01T18:23:04.971Z,101710.38
2023-04-01T18:25:37.949Z,101662.47
2023-04-01T18:28:28.582Z,101718.00
2023-04-01T18:31:00.699Z,101718.78
2023-04-01T18:33:37.011Z,101725.16
2023-04-01T18:36:20.834Z,101697.63
2023-04-01T18:38:58.191Z,101728.66
2023-04-01T18:41:38.236Z,101723.78
2023-04-01T18:44:24.576Z,101736.28
2023-04-01T18:47:02.873Z,101736.25
2023-04-01T18:49:43.982Z,101743.97
2023-04-01T18:52:21.984Z,101751.50
2023-04-01T18:55:25.317Z,101757.38
2023-04-01T18:57:56.981Z,101736.88
2023-04-01T19:00:29.848Z,101762.97
2023-04-01T19:03:02.940Z,101767.44
2023-04-01T19:05:35.805Z,101701.31
2023-04-01T19:08:29.848Z,101773.94
2023-04-01T19:11:12.699Z,101732.03
2023-04-01T19:13:54.003Z,101781.59
2023-04-01T19:16:35.047Z,101779.78
2023-04-01T19:19:28.636Z,101789.84
2023-04-01T19:22:04.919Z,101789.88
2023-04-01T19:24:50.026Z,101797.22
2023-04-01T19:27:32.812Z,101796.41
2023-04-01T19:30:21.556Z,101794.88
2023-04-01T19:33:00.958Z,101799.84
2023-04-01T19:35:42.619Z,101796.44
2023-04-01T19:38:22.601Z,101797.69
2023-04-01T19:40:55.700Z,101802.88
2023-04-01T19:43:42.808Z,101806.84
2023-04-01T19:46:22.774Z,101757.34
2023-04-01T19:49:05.343Z,101813.41
2023-04-01T19:51:41.448Z,101819.41
2023-04-01T19:54:27.921Z,101770.84
2023-04-01T19:57:02.827Z,101806.81
2023-04-01T19:59:38.855Z,101818.56
2023-04-01T20:02:37.273Z,101821.09
2023-04-01T20:05:22.845Z,101825.31
2023-04-01T20:07:55.508Z,101830.22
2023-04-01T20:10:31.984Z,101830.91
2023-04-01T20:13:23.737Z,101835.97
2023-04-01T20:16:03.698Z,101839.53
2023-04-01T20:18:42.690Z,101841.84
2023-04-01T20:21:27.039Z,101808.38
2023-04-01T20:24:01.164Z,101841.81
2023-04-01T20:26:36.251Z,101854.28
2023-04-01T20:29:27.368Z,101856.81
2023-04-01T20:32:05.548Z,101848.06
2023-04-01T20:34:56.936Z,101855.78
2023-04-01T20:37:37.749Z,101793.28
2023-04-01T20:40:33.139Z,101867.00
2023-04-01T20:43:32.894Z,101870.97
2023-04-01T20:46:08.222Z,101869.47
2023-04-01T20:49:01.751Z,101875.06
2023-04-01T20:51:33.879Z,101883.03
2023-04-01T20:54:19.448Z,101859.25
2023-04-01T20:57:01.012Z,101890.47
2023-04-01T20:59:49.382Z,101891.84
2023-04-01T21:02:31.361Z,101891.41
2023-04-01T21:05:29.323Z,101901.41
2023-04-01T21:08:06.610Z,101907.09
2023-04-01T21:10:43.594Z,101911.66
2023-04-01T21:13:24.662Z,101906.78
2023-04-01T21:16:16.835Z,101901.94
2023-04-01T21:19:00.779Z,101896.63
2023-04-01T21:21:52.222Z,101911.03
2023-04-01T21:24:46.623Z,101919.72
2023-04-01T21:27:24.801Z,101888.53
2023-04-01T21:30:02.553Z,101923.84
2023-04-01T21:32:48.850Z,101920.31
2023-04-01T21:35:32.125Z,101923.28
2023-04-01T21:38:14.852Z,101874.44
2023-04-01T21:41:11.745Z,101930.91
2023-04-01T21:44:11.882Z,101915.47
2023-04-01T21:47:18.964Z,101935.00
2023-04-01T21:50:12.002Z,101937.66
2023-04-01T21:53:11.964Z,101944.00
2023-04-01T21:56:23.218Z,101949.16
2023-04-01T21:59:28.164Z,101953.84
2023-04-01T22:02:32.522Z,101957.13
2023-04-01T22:05:09.765Z,101960.53
2023-04-01T22:07:47.104Z,101960.38
2023-04-01T22:10:30.512Z,101959.50
2023-04-01T22:13:09.329Z,101965.97
2023-04-01T22:16:01.383Z,101977.88
2023-04-01T22:18:37.855Z,101973.72
2023-04-01T22:21:14.578Z,101976.41
2023-04-01T22:23:51.723Z,101974.06
2023-04-01T22:26:27.703Z,101980.19
2023-04-01T22:29:06.718Z,101985.72
2023-04-01T22:31:42.298Z,101986.25
2023-04-01T22:34:21.885Z,101989.13
2023-04-01T22:36:57.876Z,102001.38
2023-04-01T22:39:50.062Z,102000.91
2023-04-01T22:42:36.643Z,102002.41
2023-04-01T22:45:25.744Z,102007.53
2023-04-01T22:48:03.674Z,102005.75
2023-04-01T22:50:40.719Z,102011.47
2023-04-01T22:53:23.767Z,102010.03
2023-04-01T22:55:57.734Z,102015.72
2023-04-01T22:58:32.492Z,101976.22
2023-04-01T23:01:10.279Z,102019.59
2023-04-01T23:03:42.958Z,102018.25
2023-04-01T23:06:19.691Z,102023.13
2023-04-01T23:09:11.070Z,102025.16
2023-04-01T23:11:48.556Z,102023.78
2023-04-01T23:14:45.306Z,102031.41
2023-04-01T23:17:27.646Z,102032.25
2023-04-01T23:20:06.820Z,102035.00
2023-04-01T23:22:42.579Z,102037.47
2023-04-01T23:25:24.793Z,102047.97
2023-04-01T23:27:58.485Z,102040.03
2023-04-01T23:30:51.421Z,102048.50
2023-04-01T23:33:27.817Z,101990.59
2023-04-01T23:36:06.088Z,102055.06
2023-04-01T23:38:37.338Z,102053.31
2023-04-01T23:41:10.624Z,102062.03
2023-04-01T23:43:41.363Z,102061.88
2023-04-01T23:46:11.541Z,102063.50
2023-04-01T23:48:43.876Z,102061.94
2023-04-01T23:51:20.361Z,102072.00
2023-04-01T23:53:50.230Z,102067.53
2023-04-01T23:56:25.382Z,102069.16
2023-04-01T23:58:57.785Z,102074.25
